This is the latest recevied weather packets stored in our database for station/object DL9GJ-6. If no packets are shown the sender has not sent any weather packets the latest 10 day(s).
| Time | Temp. | Humidity | Pressure | Rain* | Wind** | Luminosity | Snow |
|---|---|---|---|---|---|---|---|
| 1777640892 | 22.22° C | 29% | 1024.8 hPa | 0 mm | - | 742 W/m² | - |
| 1777640531 | 22.22° C | 32% | 1024.8 hPa | 0 mm | - | 760 W/m² | - |
| 1777639451 | 21.11° C | 29% | 1025 hPa | 0 mm | - | 789 W/m² | - |
| 1777638730 | 21.67° C | 28% | 1025.1 hPa | 0 mm | - | 805 W/m² | - |
| 1777638011 | 21.11° C | 32% | 1025.2 hPa | 0 mm | - | 812 W/m² | - |
| 1777636570 | 20.56° C | 31% | 1025.4 hPa | 0 mm | - | 840 W/m² | - |
| 1777634411 | 20° C | 32% | 1025.7 hPa | 0 mm | - | 863 W/m² | - |
| 1777633693 | 18.89° C | 30% | 1026 hPa | 0 mm | - | 868 W/m² | - |
| 1777630451 | 18.33° C | 34% | 1026.6 hPa | 0 mm | - | 837 W/m² | - |
| 1777626852 | 16.11° C | 36% | 1026.8 hPa | 0 mm | - | 777 W/m² | - |
| 1777626132 | 15° C | 36% | 1026.9 hPa | 0 mm | - | 756 W/m² | - |
| 1777624693 | 14.44° C | 39% | 1027 hPa | 0 mm | - | 711 W/m² | - |
| 1777623255 | 12.78° C | 40% | 1027.2 hPa | 0 mm | - | 639 W/m² | - |
| 1777622532 | 12.22° C | 43% | 1027.2 hPa | 0 mm | - | 634 W/m² | - |
| 1777620014 | 10.56° C | 46% | 1027.3 hPa | 0 mm | - | 536 W/m² | - |
| 1777619293 | 10° C | 50% | 1027.3 hPa | 0 mm | - | 497 W/m² | - |
| 1777618935 | 9.44° C | 51% | 1027.3 hPa | 0 mm | - | 483 W/m² | - |
| 1777617852 | 7.78° C | 55% | 1027 hPa | 0 mm | - | 360 W/m² | - |
| 1777611597 | 1.67° C | 76% | 1026.5 hPa | 0 mm | - | 22 W/m² | - |
| 1777611238 | 1.67° C | 77% | 1026.5 hPa | 0 mm | - | 20 W/m² | - |
| 1777610928 | 1.11° C | 77% | 1026.4 hPa | 0 mm | - | 19 W/m² | - |
| 1777610877 | 1.11° C | 77% | 1026.4 hPa | 0 mm | - | 19 W/m² | - |
| 1777610517 | 1.11° C | 76% | 1026.4 hPa | 0 mm | - | 17 W/m² | - |
| 1777610208 | 1.11° C | 76% | 1026.4 hPa | 0 mm | - | 15 W/m² | - |
| 1777610158 | 1.11° C | 76% | 1026.4 hPa | 0 mm | - | 15 W/m² | - |
* Rain latest hour (hover to see other rain measurements)
** Current wind speed in m/s (hover to see current wind gust speed)